Portada
METAR-TAF:

METAR-TAF

Aeroports :

Jabalpur, Índia

latitud: 23-10-54N, longitud: 80-03-31E, altitud: 495 m

Observació

L'informe es va fer fa 5 hores i 7 minuts, a les 03:00 UTC
Vent 8 kt del Sud/Sud-Oest
Temperatura 35°C
Humitat 32%
Pressió 1010 hPa
Visibilitat: 4000 m
calitja

METAR: VAJB 310300Z 21008KT 4000 HZ NSC 35/16 Q1010

Hora: 13:37 (08:07 UTC)

Pronòstic

L'informe es va fer fa 6 hores i 7 minuts, a les 02:00 UTC
Pronòstic vàlid del 31 a les 03 UTC al 31 a les 12 UTC
Vent 5 kt del Sud-Oest
Visibilitat: 4000 m
calitja
Evolucionant progressivament
l' 31 a les 10 UTC al 31 a les 12 UTC
Vent 10 kt del Oest/Nord-Oest
Visibilitat: 6000 m
Núvols disperses a una alçada de 2500 ft

TAF: VAJB 310200Z 3103/3112 23005KT 4000 HZ NSC BECMG 3110/3112 29010KT 6000 SCT025

Observacions i pronòstics meteorològics de més de 4000 aeroports (METAR i TAF).

Les estacions disponibles són els punts grocs i vermells al mapa.

Posi el ratolí al punt desitjat per veure el nom de l'estació.

Feu clic per veure les observacions i els pronòstics meteorològics.

Per canviar el mapa: feu clic els botons verds amb una creu de color negre per apropar; al botó verd amb un guió per allunyar la imatge; o en les fletxes verdes per a mapes adjacents.


METAR-TAF: